« Back
NWS Peachtree City, Ga » Text Product » MCN Terminal Aerodrome Forecast


Printer-friendly Version
Current Version              Previous Versions:   1  2  3  4  5  6  7  8  9  

Terminal Aerodrome Forecast

816
FTUS42 KFFC 252359 AAA
TAFMCN
TAF AMD
KMCN 252359Z 2600/2624 22008KT P6SM VCSH SCT030 BKN060
      TEMPO 2600/2601 VRB15G30KT 2SM TSRA BKN020CB
     FM260200 23008KT P6SM BKN040
     FM260800 24008KT 3SM BR BKN012 BKN035
     FM261300 28010KT P6SM BKN020
     FM261600 29012G22KT P6SM BKN045=

USA.gov is the U.S. government's official web portal to all federal, state and local government web resources and services.